sensor_id;sensor_type;location;lat;lon;timestamp;P1;durP1;ratioP1;P2;durP2;ratioP2
75971;SDS011;64651;47.540;19.088;2023-03-11T00:00:34;2.73;;;0.60;;
75971;SDS011;64651;47.540;19.088;2023-03-11T00:05:40;2.35;;;0.50;;
75971;SDS011;64651;47.540;19.088;2023-03-11T00:10:44;3.30;;;0.60;;
75971;SDS011;64651;47.540;19.088;2023-03-11T00:15:48;2.30;;;0.55;;
75971;SDS011;64651;47.540;19.088;2023-03-11T00:20:53;1.73;;;0.40;;
75971;SDS011;64651;47.540;19.088;2023-03-11T00:25:57;2.00;;;0.40;;
75971;SDS011;64651;47.540;19.088;2023-03-11T00:31:02;2.80;;;0.50;;
75971;SDS011;64651;47.540;19.088;2023-03-11T00:36:04;1.90;;;0.40;;
75971;SDS011;64651;47.540;19.088;2023-03-11T00:41:07;2.10;;;0.50;;
75971;SDS011;64651;47.540;19.088;2023-03-11T00:46:09;3.83;;;0.60;;
75971;SDS011;64651;47.540;19.088;2023-03-11T00:51:12;2.40;;;0.40;;
75971;SDS011;64651;47.540;19.088;2023-03-11T00:56:15;2.67;;;0.50;;
75971;SDS011;64651;47.540;19.088;2023-03-11T01:01:18;3.07;;;0.70;;
75971;SDS011;64651;47.540;19.088;2023-03-11T01:06:21;3.17;;;0.50;;
75971;SDS011;64651;47.540;19.088;2023-03-11T01:11:25;3.75;;;0.70;;
75971;SDS011;64651;47.540;19.088;2023-03-11T01:16:27;4.23;;;0.50;;
75971;SDS011;64651;47.540;19.088;2023-03-11T01:21:29;2.55;;;0.57;;
75971;SDS011;64651;47.540;19.088;2023-03-11T01:26:31;2.77;;;0.50;;
75971;SDS011;64651;47.540;19.088;2023-03-11T01:31:33;4.57;;;0.60;;
75971;SDS011;64651;47.540;19.088;2023-03-11T01:36:36;3.33;;;0.52;;
75971;SDS011;64651;47.540;19.088;2023-03-11T01:41:38;2.47;;;0.50;;
75971;SDS011;64651;47.540;19.088;2023-03-11T01:51:56;3.77;;;0.70;;
75971;SDS011;64651;47.540;19.088;2023-03-11T01:57:01;2.35;;;0.55;;
75971;SDS011;64651;47.540;19.088;2023-03-11T02:02:11;2.25;;;0.50;;
75971;SDS011;64651;47.540;19.088;2023-03-11T02:07:18;4.17;;;0.60;;
75971;SDS011;64651;47.540;19.088;2023-03-11T02:12:20;3.10;;;0.70;;
75971;SDS011;64651;47.540;19.088;2023-03-11T02:17:23;3.87;;;0.80;;
75971;SDS011;64651;47.540;19.088;2023-03-11T02:22:25;3.75;;;0.60;;
75971;SDS011;64651;47.540;19.088;2023-03-11T02:27:31;4.22;;;0.65;;
75971;SDS011;64651;47.540;19.088;2023-03-11T02:32:37;2.83;;;0.60;;
75971;SDS011;64651;47.540;19.088;2023-03-11T02:37:46;3.42;;;0.75;;
75971;SDS011;64651;47.540;19.088;2023-03-11T02:42:50;4.97;;;0.90;;
75971;SDS011;64651;47.540;19.088;2023-03-11T02:47:58;3.47;;;0.70;;
75971;SDS011;64651;47.540;19.088;2023-03-11T02:53:02;3.85;;;0.70;;
75971;SDS011;64651;47.540;19.088;2023-03-11T02:58:05;3.07;;;0.60;;
75971;SDS011;64651;47.540;19.088;2023-03-11T03:03:08;3.30;;;0.50;;
75971;SDS011;64651;47.540;19.088;2023-03-11T03:08:11;2.20;;;0.50;;
75971;SDS011;64651;47.540;19.088;2023-03-11T03:13:13;2.65;;;0.60;;
75971;SDS011;64651;47.540;19.088;2023-03-11T03:18:15;3.28;;;0.60;;
75971;SDS011;64651;47.540;19.088;2023-03-11T03:23:18;2.40;;;0.50;;
75971;SDS011;64651;47.540;19.088;2023-03-11T03:28:21;4.75;;;1.00;;
75971;SDS011;64651;47.540;19.088;2023-03-11T03:33:23;5.47;;;0.70;;
75971;SDS011;64651;47.540;19.088;2023-03-11T03:38:26;2.62;;;0.50;;
75971;SDS011;64651;47.540;19.088;2023-03-11T03:43:28;3.05;;;0.65;;
75971;SDS011;64651;47.540;19.088;2023-03-11T03:48:30;2.67;;;0.47;;
75971;SDS011;64651;47.540;19.088;2023-03-11T03:53:33;2.10;;;0.45;;
75971;SDS011;64651;47.540;19.088;2023-03-11T03:58:36;1.63;;;0.47;;
75971;SDS011;64651;47.540;19.088;2023-03-11T04:03:38;1.52;;;0.40;;
75971;SDS011;64651;47.540;19.088;2023-03-11T04:08:41;3.22;;;0.50;;
75971;SDS011;64651;47.540;19.088;2023-03-11T04:13:43;4.73;;;0.50;;
75971;SDS011;64651;47.540;19.088;2023-03-11T04:18:45;3.12;;;0.60;;
75971;SDS011;64651;47.540;19.088;2023-03-11T04:23:48;3.50;;;0.50;;
75971;SDS011;64651;47.540;19.088;2023-03-11T04:28:50;3.35;;;0.50;;
75971;SDS011;64651;47.540;19.088;2023-03-11T04:33:52;3.10;;;0.52;;
75971;SDS011;64651;47.540;19.088;2023-03-11T04:38:55;4.43;;;0.43;;
75971;SDS011;64651;47.540;19.088;2023-03-11T04:43:58;4.60;;;0.70;;
75971;SDS011;64651;47.540;19.088;2023-03-11T04:49:01;4.23;;;0.60;;
75971;SDS011;64651;47.540;19.088;2023-03-11T04:54:03;11.60;;;0.70;;
75971;SDS011;64651;47.540;19.088;2023-03-11T04:59:05;8.40;;;0.65;;
75971;SDS011;64651;47.540;19.088;2023-03-11T05:04:08;18.57;;;1.43;;
75971;SDS011;64651;47.540;19.088;2023-03-11T05:09:11;9.45;;;0.80;;
75971;SDS011;64651;47.540;19.088;2023-03-11T05:14:14;14.27;;;1.00;;
75971;SDS011;64651;47.540;19.088;2023-03-11T05:19:16;10.73;;;1.02;;
75971;SDS011;64651;47.540;19.088;2023-03-11T05:24:35;6.70;;;0.80;;
75971;SDS011;64651;47.540;19.088;2023-03-11T05:29:38;4.07;;;0.68;;
75971;SDS011;64651;47.540;19.088;2023-03-11T05:34:40;5.68;;;0.90;;
75971;SDS011;64651;47.540;19.088;2023-03-11T05:39:43;3.43;;;0.83;;
75971;SDS011;64651;47.540;19.088;2023-03-11T05:44:45;2.75;;;0.50;;
75971;SDS011;64651;47.540;19.088;2023-03-11T05:49:47;2.30;;;0.40;;
75971;SDS011;64651;47.540;19.088;2023-03-11T05:54:50;2.03;;;0.40;;
75971;SDS011;64651;47.540;19.088;2023-03-11T05:59:53;2.55;;;0.40;;
75971;SDS011;64651;47.540;19.088;2023-03-11T06:04:55;3.20;;;0.50;;
75971;SDS011;64651;47.540;19.088;2023-03-11T06:09:58;3.08;;;0.40;;
75971;SDS011;64651;47.540;19.088;2023-03-11T06:15:01;3.08;;;0.50;;
75971;SDS011;64651;47.540;19.088;2023-03-11T06:20:03;3.58;;;0.70;;
75971;SDS011;64651;47.540;19.088;2023-03-11T06:25:06;4.75;;;0.75;;
75971;SDS011;64651;47.540;19.088;2023-03-11T06:30:09;3.40;;;0.63;;
75971;SDS011;64651;47.540;19.088;2023-03-11T06:35:12;2.28;;;0.45;;
75971;SDS011;64651;47.540;19.088;2023-03-11T06:40:15;4.57;;;0.60;;
75971;SDS011;64651;47.540;19.088;2023-03-11T06:45:17;4.43;;;0.40;;
75971;SDS011;64651;47.540;19.088;2023-03-11T06:50:21;2.60;;;0.60;;
75971;SDS011;64651;47.540;19.088;2023-03-11T06:55:24;2.97;;;0.30;;
75971;SDS011;64651;47.540;19.088;2023-03-11T07:00:27;2.60;;;0.40;;
75971;SDS011;64651;47.540;19.088;2023-03-11T07:05:30;4.70;;;0.85;;
75971;SDS011;64651;47.540;19.088;2023-03-11T07:10:32;4.10;;;0.80;;
75971;SDS011;64651;47.540;19.088;2023-03-11T07:15:35;3.00;;;0.57;;
75971;SDS011;64651;47.540;19.088;2023-03-11T07:20:37;2.50;;;0.50;;
75971;SDS011;64651;47.540;19.088;2023-03-11T07:25:44;3.85;;;0.65;;
75971;SDS011;64651;47.540;19.088;2023-03-11T07:30:47;5.40;;;0.90;;
75971;SDS011;64651;47.540;19.088;2023-03-11T07:35:49;2.80;;;0.40;;
75971;SDS011;64651;47.540;19.088;2023-03-11T07:40:58;2.80;;;0.50;;
75971;SDS011;64651;47.540;19.088;2023-03-11T07:46:08;4.63;;;0.60;;
75971;SDS011;64651;47.540;19.088;2023-03-11T07:51:22;3.55;;;0.60;;
75971;SDS011;64651;47.540;19.088;2023-03-11T07:56:29;3.55;;;0.80;;
75971;SDS011;64651;47.540;19.088;2023-03-11T08:01:34;5.32;;;0.70;;
75971;SDS011;64651;47.540;19.088;2023-03-11T08:06:42;3.80;;;0.70;;
75971;SDS011;64651;47.540;19.088;2023-03-11T08:11:47;2.93;;;0.50;;
75971;SDS011;64651;47.540;19.088;2023-03-11T08:16:50;2.67;;;0.50;;
75971;SDS011;64651;47.540;19.088;2023-03-11T08:21:52;3.53;;;0.65;;
75971;SDS011;64651;47.540;19.088;2023-03-11T08:26:54;4.03;;;0.70;;
75971;SDS011;64651;47.540;19.088;2023-03-11T08:31:57;5.40;;;0.90;;
75971;SDS011;64651;47.540;19.088;2023-03-11T08:37:01;2.40;;;0.40;;
75971;SDS011;64651;47.540;19.088;2023-03-11T08:42:03;2.85;;;0.47;;
75971;SDS011;64651;47.540;19.088;2023-03-11T08:47:05;2.95;;;0.40;;
75971;SDS011;64651;47.540;19.088;2023-03-11T08:52:08;5.20;;;0.85;;
75971;SDS011;64651;47.540;19.088;2023-03-11T08:57:10;2.10;;;0.47;;
75971;SDS011;64651;47.540;19.088;2023-03-11T09:02:12;3.87;;;0.87;;
75971;SDS011;64651;47.540;19.088;2023-03-11T09:07:14;2.12;;;0.73;;
75971;SDS011;64651;47.540;19.088;2023-03-11T09:12:16;2.72;;;0.60;;
75971;SDS011;64651;47.540;19.088;2023-03-11T09:17:18;3.03;;;0.70;;
75971;SDS011;64651;47.540;19.088;2023-03-11T09:22:22;4.40;;;0.57;;
75971;SDS011;64651;47.540;19.088;2023-03-11T09:27:24;3.83;;;0.63;;
75971;SDS011;64651;47.540;19.088;2023-03-11T09:32:26;3.33;;;0.50;;
75971;SDS011;64651;47.540;19.088;2023-03-11T09:37:28;4.20;;;0.60;;
75971;SDS011;64651;47.540;19.088;2023-03-11T09:42:44;2.12;;;0.43;;
75971;SDS011;64651;47.540;19.088;2023-03-11T09:53:43;3.47;;;0.60;;
75971;SDS011;64651;47.540;19.088;2023-03-11T09:58:51;5.20;;;0.70;;
75971;SDS011;64651;47.540;19.088;2023-03-11T10:09:42;3.65;;;0.47;;
75971;SDS011;64651;47.540;19.088;2023-03-11T10:36:08;3.83;;;0.50;;
75971;SDS011;64651;47.540;19.088;2023-03-11T10:41:17;8.27;;;0.65;;
75971;SDS011;64651;47.540;19.088;2023-03-11T10:46:27;5.90;;;0.60;;
75971;SDS011;64651;47.540;19.088;2023-03-11T10:51:31;6.20;;;0.80;;
75971;SDS011;64651;47.540;19.088;2023-03-11T10:56:37;3.60;;;0.70;;
75971;SDS011;64651;47.540;19.088;2023-03-11T11:01:42;3.00;;;0.70;;
75971;SDS011;64651;47.540;19.088;2023-03-11T11:06:56;5.25;;;0.90;;
75971;SDS011;64651;47.540;19.088;2023-03-11T11:12:34;3.60;;;0.53;;
75971;SDS011;64651;47.540;19.088;2023-03-11T11:17:32;2.97;;;0.68;;
75971;SDS011;64651;47.540;19.088;2023-03-11T11:22:35;3.45;;;0.80;;
75971;SDS011;64651;47.540;19.088;2023-03-11T11:27:39;4.60;;;0.80;;
75971;SDS011;64651;47.540;19.088;2023-03-11T11:33:00;4.78;;;0.90;;
75971;SDS011;64651;47.540;19.088;2023-03-11T11:38:27;5.53;;;0.77;;
75971;SDS011;64651;47.540;19.088;2023-03-11T11:43:33;5.50;;;1.00;;
75971;SDS011;64651;47.540;19.088;2023-03-11T11:53:58;4.68;;;1.10;;
75971;SDS011;64651;47.540;19.088;2023-03-11T11:59:22;6.15;;;0.77;;
75971;SDS011;64651;47.540;19.088;2023-03-11T12:04:31;5.13;;;0.80;;
75971;SDS011;64651;47.540;19.088;2023-03-11T12:10:01;4.53;;;0.90;;
75971;SDS011;64651;47.540;19.088;2023-03-11T12:15:25;3.53;;;0.88;;
75971;SDS011;64651;47.540;19.088;2023-03-11T12:20:35;5.20;;;0.90;;
75971;SDS011;64651;47.540;19.088;2023-03-11T12:31:06;4.97;;;1.00;;
75971;SDS011;64651;47.540;19.088;2023-03-11T12:36:24;9.63;;;1.50;;
75971;SDS011;64651;47.540;19.088;2023-03-11T12:41:31;6.65;;;1.50;;
75971;SDS011;64651;47.540;19.088;2023-03-11T13:13:01;9.63;;;1.08;;
75971;SDS011;64651;47.540;19.088;2023-03-11T13:18:31;5.62;;;1.15;;
75971;SDS011;64651;47.540;19.088;2023-03-11T13:23:35;6.77;;;1.20;;
75971;SDS011;64651;47.540;19.088;2023-03-11T13:28:42;7.45;;;1.30;;
75971;SDS011;64651;47.540;19.088;2023-03-11T13:33:53;7.45;;;1.25;;
75971;SDS011;64651;47.540;19.088;2023-03-11T13:44:32;9.02;;;1.37;;
75971;SDS011;64651;47.540;19.088;2023-03-11T13:49:39;10.23;;;1.50;;
75971;SDS011;64651;47.540;19.088;2023-03-11T13:54:45;4.60;;;1.10;;
75971;SDS011;64651;47.540;19.088;2023-03-11T13:59:53;7.25;;;1.10;;
75971;SDS011;64651;47.540;19.088;2023-03-11T14:04:57;8.82;;;1.45;;
75971;SDS011;64651;47.540;19.088;2023-03-11T14:10:24;5.97;;;1.50;;
75971;SDS011;64651;47.540;19.088;2023-03-11T14:15:28;6.67;;;1.10;;
75971;SDS011;64651;47.540;19.088;2023-03-11T14:20:45;7.85;;;1.65;;
75971;SDS011;64651;47.540;19.088;2023-03-11T14:25:56;7.50;;;1.62;;
75971;SDS011;64651;47.540;19.088;2023-03-11T14:31:00;5.10;;;1.23;;
75971;SDS011;64651;47.540;19.088;2023-03-11T14:36:04;4.00;;;0.80;;
75971;SDS011;64651;47.540;19.088;2023-03-11T14:41:14;6.53;;;1.40;;
75971;SDS011;64651;47.540;19.088;2023-03-11T14:46:21;5.28;;;1.30;;
75971;SDS011;64651;47.540;19.088;2023-03-11T14:51:30;8.52;;;1.48;;
75971;SDS011;64651;47.540;19.088;2023-03-11T14:56:38;4.72;;;1.40;;
75971;SDS011;64651;47.540;19.088;2023-03-11T15:01:45;9.90;;;1.70;;
75971;SDS011;64651;47.540;19.088;2023-03-11T15:06:48;7.20;;;1.77;;
75971;SDS011;64651;47.540;19.088;2023-03-11T15:11:52;8.32;;;1.50;;
75971;SDS011;64651;47.540;19.088;2023-03-11T15:22:41;5.22;;;1.40;;
75971;SDS011;64651;47.540;19.088;2023-03-11T15:27:43;6.18;;;1.62;;
75971;SDS011;64651;47.540;19.088;2023-03-11T15:32:47;4.87;;;1.30;;
75971;SDS011;64651;47.540;19.088;2023-03-11T15:37:50;6.30;;;1.70;;
75971;SDS011;64651;47.540;19.088;2023-03-11T15:48:16;5.05;;;1.40;;
75971;SDS011;64651;47.540;19.088;2023-03-11T15:53:18;7.28;;;1.60;;
75971;SDS011;64651;47.540;19.088;2023-03-11T15:58:21;5.30;;;1.40;;
75971;SDS011;64651;47.540;19.088;2023-03-11T16:03:24;5.15;;;1.50;;
75971;SDS011;64651;47.540;19.088;2023-03-11T16:08:26;5.32;;;1.35;;
75971;SDS011;64651;47.540;19.088;2023-03-11T16:13:28;6.55;;;1.58;;
75971;SDS011;64651;47.540;19.088;2023-03-11T16:18:32;5.85;;;1.60;;
75971;SDS011;64651;47.540;19.088;2023-03-11T16:23:36;5.30;;;1.40;;
75971;SDS011;64651;47.540;19.088;2023-03-11T16:28:52;5.10;;;1.30;;
75971;SDS011;64651;47.540;19.088;2023-03-11T16:33:54;6.20;;;1.25;;
75971;SDS011;64651;47.540;19.088;2023-03-11T16:38:56;4.82;;;1.17;;
75971;SDS011;64651;47.540;19.088;2023-03-11T16:43:58;4.40;;;0.90;;
75971;SDS011;64651;47.540;19.088;2023-03-11T16:49:00;6.47;;;1.63;;
75971;SDS011;64651;47.540;19.088;2023-03-11T16:54:03;7.68;;;1.33;;
75971;SDS011;64651;47.540;19.088;2023-03-11T16:59:05;8.85;;;1.45;;
75971;SDS011;64651;47.540;19.088;2023-03-11T17:04:08;6.80;;;1.77;;
75971;SDS011;64651;47.540;19.088;2023-03-11T17:09:10;4.82;;;1.10;;
75971;SDS011;64651;47.540;19.088;2023-03-11T17:14:12;6.83;;;1.37;;
75971;SDS011;64651;47.540;19.088;2023-03-11T17:19:17;7.28;;;1.62;;
75971;SDS011;64651;47.540;19.088;2023-03-11T17:24:20;8.30;;;1.70;;
75971;SDS011;64651;47.540;19.088;2023-03-11T17:29:22;7.18;;;1.60;;
75971;SDS011;64651;47.540;19.088;2023-03-11T17:34:24;8.27;;;1.85;;
75971;SDS011;64651;47.540;19.088;2023-03-11T17:39:26;7.07;;;2.10;;
75971;SDS011;64651;47.540;19.088;2023-03-11T17:44:29;6.80;;;1.80;;
75971;SDS011;64651;47.540;19.088;2023-03-11T17:49:51;8.10;;;1.75;;
75971;SDS011;64651;47.540;19.088;2023-03-11T17:54:54;6.65;;;1.70;;
75971;SDS011;64651;47.540;19.088;2023-03-11T17:59:57;8.10;;;2.30;;
75971;SDS011;64651;47.540;19.088;2023-03-11T18:05:05;7.23;;;1.93;;
75971;SDS011;64651;47.540;19.088;2023-03-11T18:10:08;6.28;;;1.77;;
75971;SDS011;64651;47.540;19.088;2023-03-11T18:15:11;6.47;;;2.08;;
75971;SDS011;64651;47.540;19.088;2023-03-11T18:20:20;6.65;;;2.00;;
75971;SDS011;64651;47.540;19.088;2023-03-11T18:25:22;8.73;;;2.33;;
75971;SDS011;64651;47.540;19.088;2023-03-11T18:30:24;7.43;;;2.40;;
75971;SDS011;64651;47.540;19.088;2023-03-11T18:35:27;8.98;;;2.40;;
75971;SDS011;64651;47.540;19.088;2023-03-11T18:40:29;5.90;;;1.92;;
75971;SDS011;64651;47.540;19.088;2023-03-11T18:45:31;7.47;;;2.22;;
75971;SDS011;64651;47.540;19.088;2023-03-11T18:50:33;4.18;;;1.27;;
75971;SDS011;64651;47.540;19.088;2023-03-11T18:55:36;7.77;;;2.43;;
75971;SDS011;64651;47.540;19.088;2023-03-11T19:00:38;8.02;;;2.70;;
75971;SDS011;64651;47.540;19.088;2023-03-11T19:05:46;8.68;;;2.53;;
75971;SDS011;64651;47.540;19.088;2023-03-11T19:10:51;6.95;;;2.35;;
75971;SDS011;64651;47.540;19.088;2023-03-11T19:15:54;7.57;;;2.58;;
75971;SDS011;64651;47.540;19.088;2023-03-11T19:21:00;7.13;;;2.00;;
75971;SDS011;64651;47.540;19.088;2023-03-11T19:26:04;5.82;;;1.42;;
75971;SDS011;64651;47.540;19.088;2023-03-11T19:31:08;6.90;;;2.15;;
75971;SDS011;64651;47.540;19.088;2023-03-11T19:36:10;7.95;;;2.08;;
75971;SDS011;64651;47.540;19.088;2023-03-11T19:41:14;8.05;;;2.28;;
75971;SDS011;64651;47.540;19.088;2023-03-11T19:46:23;7.80;;;2.30;;
75971;SDS011;64651;47.540;19.088;2023-03-11T19:51:26;6.25;;;1.85;;
75971;SDS011;64651;47.540;19.088;2023-03-11T19:56:39;6.03;;;1.35;;
75971;SDS011;64651;47.540;19.088;2023-03-11T20:01:42;7.60;;;2.78;;
75971;SDS011;64651;47.540;19.088;2023-03-11T20:06:44;6.95;;;2.05;;
75971;SDS011;64651;47.540;19.088;2023-03-11T20:11:46;8.13;;;2.90;;
75971;SDS011;64651;47.540;19.088;2023-03-11T20:16:48;8.93;;;2.70;;
75971;SDS011;64651;47.540;19.088;2023-03-11T20:21:51;8.40;;;2.47;;
75971;SDS011;64651;47.540;19.088;2023-03-11T20:26:53;7.78;;;2.70;;
75971;SDS011;64651;47.540;19.088;2023-03-11T20:31:55;7.62;;;2.65;;
75971;SDS011;64651;47.540;19.088;2023-03-11T20:36:57;8.30;;;2.57;;
75971;SDS011;64651;47.540;19.088;2023-03-11T20:42:00;8.15;;;2.37;;
75971;SDS011;64651;47.540;19.088;2023-03-11T20:47:02;7.03;;;1.75;;
75971;SDS011;64651;47.540;19.088;2023-03-11T20:52:04;8.13;;;2.60;;
75971;SDS011;64651;47.540;19.088;2023-03-11T20:57:06;10.95;;;2.58;;
75971;SDS011;64651;47.540;19.088;2023-03-11T21:02:10;9.40;;;2.47;;
75971;SDS011;64651;47.540;19.088;2023-03-11T21:07:12;7.80;;;2.67;;
75971;SDS011;64651;47.540;19.088;2023-03-11T21:12:15;10.00;;;3.45;;
75971;SDS011;64651;47.540;19.088;2023-03-11T21:17:17;6.75;;;2.03;;
75971;SDS011;64651;47.540;19.088;2023-03-11T21:22:20;7.82;;;2.30;;
75971;SDS011;64651;47.540;19.088;2023-03-11T21:27:22;6.80;;;2.00;;
75971;SDS011;64651;47.540;19.088;2023-03-11T21:32:28;7.15;;;2.10;;
75971;SDS011;64651;47.540;19.088;2023-03-11T21:37:32;6.72;;;1.80;;
75971;SDS011;64651;47.540;19.088;2023-03-11T21:42:34;8.27;;;2.55;;
75971;SDS011;64651;47.540;19.088;2023-03-11T21:47:37;7.75;;;2.53;;
75971;SDS011;64651;47.540;19.088;2023-03-11T21:52:39;7.57;;;2.37;;
75971;SDS011;64651;47.540;19.088;2023-03-11T21:57:41;7.43;;;2.25;;
75971;SDS011;64651;47.540;19.088;2023-03-11T22:02:43;7.57;;;2.37;;
75971;SDS011;64651;47.540;19.088;2023-03-11T22:07:46;9.48;;;2.83;;
75971;SDS011;64651;47.540;19.088;2023-03-11T22:12:48;5.95;;;1.55;;
75971;SDS011;64651;47.540;19.088;2023-03-11T22:17:50;8.93;;;2.70;;
75971;SDS011;64651;47.540;19.088;2023-03-11T22:22:53;7.97;;;2.10;;
75971;SDS011;64651;47.540;19.088;2023-03-11T22:27:55;6.25;;;1.70;;
75971;SDS011;64651;47.540;19.088;2023-03-11T22:32:58;8.25;;;2.12;;
75971;SDS011;64651;47.540;19.088;2023-03-11T22:38:00;5.78;;;1.58;;
75971;SDS011;64651;47.540;19.088;2023-03-11T22:43:02;7.43;;;2.10;;
75971;SDS011;64651;47.540;19.088;2023-03-11T22:48:04;6.95;;;2.05;;
75971;SDS011;64651;47.540;19.088;2023-03-11T22:53:07;8.15;;;2.50;;
75971;SDS011;64651;47.540;19.088;2023-03-11T22:58:09;6.85;;;2.00;;
75971;SDS011;64651;47.540;19.088;2023-03-11T23:03:12;7.78;;;1.98;;
75971;SDS011;64651;47.540;19.088;2023-03-11T23:08:15;6.40;;;1.90;;
75971;SDS011;64651;47.540;19.088;2023-03-11T23:13:17;7.12;;;1.92;;
75971;SDS011;64651;47.540;19.088;2023-03-11T23:18:20;8.82;;;2.47;;
75971;SDS011;64651;47.540;19.088;2023-03-11T23:23:22;6.62;;;1.67;;
75971;SDS011;64651;47.540;19.088;2023-03-11T23:28:24;7.80;;;2.17;;
75971;SDS011;64651;47.540;19.088;2023-03-11T23:33:26;9.23;;;2.27;;
75971;SDS011;64651;47.540;19.088;2023-03-11T23:38:28;7.55;;;2.22;;
75971;SDS011;64651;47.540;19.088;2023-03-11T23:43:31;7.12;;;1.92;;
75971;SDS011;64651;47.540;19.088;2023-03-11T23:48:33;7.25;;;1.92;;
75971;SDS011;64651;47.540;19.088;2023-03-11T23:53:35;7.43;;;2.30;;
75971;SDS011;64651;47.540;19.088;2023-03-11T23:58:38;6.97;;;2.03;;
